Terminal Aerodrome Forecast
Issued by NWS Bismarck, ND

Home | Current Version | Previous Version | Text Only | Print | Product List | Glossary Off
Versions: 1 2 3 4 5 6 7 8 9 10 11 12 13 14 15 16 17 18 19 20 21 22 23 24 25 26 27 28

000
FTUS43 KBIS 270800 AAA
TAFBIS
TAF AMD
KBIS 270823Z 2708/2806 15004KT 6SM BR SCT002
     FM270900 00000KT 1/4SM FG OVC002
     FM271500 16007KT P6SM SKC
     FM280400 14004KT P6SM BKN025 OVC040=

USA.gov is the U.S. government's official web portal to all federal, state and local government web resources and services.